Time;durP1;ratioP1;P1;durP2;ratioP2;P2;SDS_P1;SDS_P2;PMS_P1;PMS_P2;Temp;Humidity;BMP_temperature;BMP_pressure;BME280_temperature;BME280_humidity;BME280_pressure;Samples;Min_cycle;Max_cycle;Signal;HPM_P1;HPM_P2
2024/01/15 00:00:49;;;;;;;42.08;12.57;;;;;;;;;;5050358;28;20025;-80
2024/01/15 00:03:15;;;;;;;39.70;12.80;;;;;;;;;;5049797;28;20033;-83
2024/01/15 00:05:41;;;;;;;43.75;12.35;;;;;;;;;;5052595;28;20495;-82
2024/01/15 00:08:07;;;;;;;45.15;13.65;;;;;;;;;;5048536;28;20036;-82
2024/01/15 00:10:33;;;;;;;36.17;11.43;;;;;;;;;;5053328;28;20033;-80
2024/01/15 00:12:59;;;;;;;42.75;13.07;;;;;;;;;;5048577;28;20033;-82
2024/01/15 00:15:26;;;;;;;44.90;12.98;;;;;;;;;;5060850;28;20033;-82
2024/01/15 00:17:52;;;;;;;40.47;12.52;;;;;;;;;;5066363;28;20017;-84
2024/01/15 00:20:18;;;;;;;33.05;11.15;;;-2.10;99.90;;;;;;5071867;28;20056;-85
2024/01/15 00:22:43;;;;;;;43.67;13.35;;;-2.10;99.90;;;;;;5069628;28;20025;-82
2024/01/15 00:25:09;;;;;;;48.47;14.05;;;-2.10;99.90;;;;;;5067999;28;20100;-82
2024/01/15 00:27:35;;;;;;;42.72;13.38;;;-2.10;99.90;;;;;;5045533;28;20037;-83
2024/01/15 00:30:01;;;;;;;40.72;11.43;;;;;;;;;;5057324;28;20032;-82
2024/01/15 00:32:26;;;;;;;36.85;12.20;;;-2.00;99.90;;;;;;5055745;28;20067;-81
2024/01/15 00:34:52;;;;;;;35.05;12.73;;;;;;;;;;5038580;28;21191;-83
2024/01/15 00:37:18;;;;;;;45.05;12.20;;;-1.80;99.90;;;;;;5036831;28;20028;-84
2024/01/15 00:39:44;;;;;;;43.88;13.38;;;;;;;;;;5041116;28;20052;-85
2024/01/15 00:42:10;;;;;;;37.90;12.52;;;;;;;;;;5055687;28;20033;-82
2024/01/15 00:44:36;;;;;;;41.63;13.65;;;;;;;;;;5042518;28;20035;-82
2024/01/15 00:47:02;;;;;;;39.80;11.63;;;;;;;;;;5037387;28;20029;-83
2024/01/15 00:49:28;;;;;;;40.25;12.55;;;;;;;;;;5040985;28;20033;-83
2024/01/15 00:51:54;;;;;;;38.47;11.82;;;;;;;;;;5056728;28;20086;-83
2024/01/15 00:54:20;;;;;;;35.05;12.25;;;;;;;;;;5055320;28;20070;-82
2024/01/15 00:56:45;;;;;;;36.03;12.35;;;-1.60;99.90;;;;;;5037629;28;20037;-81
2024/01/15 00:59:14;;;;;;;32.53;10.60;;;;;;;;;;5042189;28;20112;-82
2024/01/15 01:01:42;;;;;;;37.88;11.02;;;;;;;;;;5024088;28;20037;-82
2024/01/15 01:04:08;;;;;;;42.17;12.23;;;;;;;;;;5032167;28;20197;-82
2024/01/15 01:06:34;;;;;;;36.25;11.23;;;;;;;;;;5033226;28;21733;-83
2024/01/15 01:09:00;;;;;;;34.05;11.05;;;;;;;;;;5033036;28;20028;-83
2024/01/15 01:11:26;;;;;;;37.70;11.82;;;-1.60;99.90;;;;;;5039330;28;20123;-81
2024/01/15 01:13:52;;;;;;;36.50;12.02;;;;;;;;;;5054784;28;20493;-83
2024/01/15 01:16:17;;;;;;;41.58;11.88;;;-1.60;99.90;;;;;;5050704;28;20043;-82
2024/01/15 01:18:43;;;;;;;44.67;12.68;;;-1.70;99.90;;;;;;5033791;28;20021;-83
2024/01/15 01:21:09;;;;;;;43.55;13.30;;;-1.80;99.90;;;;;;5034541;28;20036;-83
2024/01/15 01:23:34;;;;;;;38.53;13.10;;;-1.80;99.90;;;;;;5036334;28;20112;-84
2024/01/15 01:26:00;;;;;;;39.90;12.93;;;;;;;;;;5034518;28;20036;-82
2024/01/15 01:28:26;;;;;;;61.75;19.95;;;-1.70;99.90;;;;;;5040243;28;20068;-82
2024/01/15 01:30:51;;;;;;;56.17;18.35;;;-1.70;99.90;;;;;;5032366;28;20036;-83
2024/01/15 01:33:17;;;;;;;51.63;15.52;;;;;;;;;;5035590;28;20071;-83
2024/01/15 01:35:44;;;;;;;43.53;12.75;;;-1.70;99.90;;;;;;5053320;28;20060;-81
2024/01/15 01:38:10;;;;;;;46.40;13.57;;;;;;;;;;5048046;28;20029;-82
2024/01/15 01:40:36;;;;;;;40.38;12.93;;;;;;;;;;5052808;28;20094;-83
2024/01/15 01:43:04;;;;;;;44.38;15.48;;;1.50;99.90;;;;;;5030176;28;20033;-83
2024/01/15 01:45:30;;;;;;;41.22;13.95;;;-1.50;99.90;;;;;;5051343;28;20025;-83
2024/01/15 01:47:56;;;;;;;37.05;12.30;;;-1.60;99.90;;;;;;5052737;28;20485;-83
2024/01/15 01:50:21;;;;;;;43.05;17.45;;;-1.50;99.90;;;;;;5034912;28;20035;-83
2024/01/15 01:52:48;;;;;;;40.55;14.93;;;;;;;;;;5047985;28;20410;-82
2024/01/15 01:55:14;;;;;;;43.70;13.32;;;;;;;;;;5051744;28;20037;-83
2024/01/15 01:57:41;;;;;;;49.03;16.17;;;-1.50;99.90;;;;;;5049966;28;20037;-83
2024/01/15 02:00:07;;;;;;;41.28;14.02;;;-1.60;99.90;;;;;;5032442;28;20538;-83
2024/01/15 02:02:34;;;;;;;30.90;11.23;;;-1.50;99.90;;;;;;5048205;28;20634;-84
2024/01/15 02:05:00;;;;;;;35.85;14.35;;;;;;;;;;5031274;28;20052;-83
2024/01/15 02:07:27;;;;;;;46.33;15.60;;;-1.60;99.90;;;;;;5048812;28;20474;-85
2024/01/15 02:09:53;;;;;;;40.35;13.02;;;;;;;;;;5051326;28;20040;-82
2024/01/15 02:12:19;;;;;;;34.30;12.27;;;;;;;;;;5032442;28;20053;-84
2024/01/15 02:14:45;;;;;;;33.75;12.25;;;;;;;;;;5031781;28;20025;-82
2024/01/15 02:17:11;;;;;;;33.33;11.90;;;-1.50;99.90;;;;;;5033887;28;20041;-83
2024/01/15 02:19:36;;;;;;;41.60;14.48;;;-1.50;99.90;;;;;;5048378;28;20099;-82
2024/01/15 02:22:02;;;;;;;36.97;12.68;;;;;;;;;;5047065;28;20021;-83
2024/01/15 02:24:28;;;;;;;36.88;12.55;;;;;;;;;;5045533;28;20036;-81
2024/01/15 02:26:54;;;;;;;36.88;12.50;;;;;;;;;;5031918;28;20025;-80
2024/01/15 02:29:20;;;;;;;37.03;12.25;;;;;;;;;;5051476;28;20653;-82
2024/01/15 02:31:46;;;;;;;38.70;12.85;;;;;;;;;;5049917;28;20043;-81
2024/01/15 02:34:12;;;;;;;42.08;12.80;;;;;;;;;;5033906;28;20045;-82
2024/01/15 02:36:38;;;;;;;36.22;12.35;;;-1.50;99.90;;;;;;5032159;28;20553;-81
2024/01/15 02:39:03;;;;;;;39.55;12.30;;;-1.50;99.90;;;;;;5049741;28;20068;-83
2024/01/15 02:41:29;;;;;;;34.70;12.38;;;-1.50;99.90;;;;;;5028475;28;20043;-82
2024/01/15 02:43:54;;;;;;;35.65;11.65;;;-1.50;99.90;;;;;;5050179;28;20037;-82
2024/01/15 02:46:20;;;;;;;33.22;11.15;;;-1.50;99.90;;;;;;5052754;28;20394;-81
2024/01/15 02:48:46;;;;;;;35.85;13.02;;;-1.50;99.90;;;;;;5053981;28;20063;-83
2024/01/15 02:51:11;;;;;;;31.63;11.02;;;-1.40;99.90;;;;;;5008724;28;20041;-83
2024/01/15 02:53:37;;;;;;;34.08;11.57;;;-1.30;99.90;;;;;;5029283;28;20036;-81
2024/01/15 02:56:03;;;;;;;35.63;11.73;;;-1.40;99.90;;;;;;5047841;28;20025;-81
2024/01/15 02:58:28;;;;;;;33.30;12.43;;;-1.20;99.90;;;;;;5033084;28;20033;-82
2024/01/15 03:00:54;;;;;;;31.45;10.73;;;-1.20;99.90;;;;;;5030753;28;20033;-83
2024/01/15 03:03:20;;;;;;;37.10;12.93;;;;;;;;;;5050239;28;20672;-84
2024/01/15 03:05:45;;;;;;;39.45;12.05;;;-1.20;99.90;;;;;;5031839;28;20017;-82
2024/01/15 03:08:11;;;;;;;34.22;10.82;;;-1.10;99.90;;;;;;5033167;28;20025;-83
2024/01/15 03:10:37;;;;;;;35.53;10.73;;;-1.20;99.90;;;;;;5035979;28;20033;-81
2024/01/15 03:13:02;;;;;;;33.13;11.43;;;-1.10;99.90;;;;;;5029053;28;20037;-82
2024/01/15 03:15:28;;;;;;;33.30;11.50;;;-1.60;99.90;;;;;;5030280;28;20102;-79
2024/01/15 03:17:53;;;;;;;30.90;11.23;;;-1.10;99.90;;;;;;5029814;28;20026;-80
2024/01/15 03:20:19;;;;;;;33.55;12.10;;;-1.10;99.90;;;;;;5035083;28;20041;-82
2024/01/15 03:22:45;;;;;;;34.13;12.15;;;-1.10;99.90;;;;;;5033101;28;20614;-83
2024/01/15 03:25:10;;;;;;;28.20;10.82;;;-1.20;99.90;;;;;;5037394;28;20222;-84
2024/01/15 03:27:36;;;;;;;36.58;11.65;;;-0.30;99.90;;;;;;5050029;28;20093;-85
2024/01/15 03:30:02;;;;;;;34.63;11.50;;;-1.30;99.90;;;;;;5052107;28;20017;-85
2024/01/15 03:32:28;;;;;;;34.03;12.55;;;;;;;;;;5049241;28;20005;-83
2024/01/15 03:34:54;;;;;;;36.80;11.95;;;;;;;;;;5068010;28;20033;-83
2024/01/15 03:37:20;;;;;;;29.88;11.75;;;;;;;;;;5040861;28;21556;-81
2024/01/15 03:39:46;;;;;;;29.63;11.38;;;;;;;;;;5051831;28;20037;-84
2024/01/15 03:42:12;;;;;;;33.00;11.77;;;-1.20;99.90;;;;;;5051628;28;20516;-81
2024/01/15 03:44:37;;;;;;;30.63;12.00;;;-1.10;99.90;;;;;;5032647;28;20086;-82
2024/01/15 03:47:04;;;;;;;32.22;11.68;;;-1.10;99.90;;;;;;5033770;28;20029;-82
2024/01/15 03:49:29;;;;;;;29.95;10.38;;;-1.00;99.90;;;;;;5034913;28;20033;-82
2024/01/15 03:51:55;;;;;;;26.95;11.20;;;-1.10;99.90;;;;;;5016949;28;20024;-80
2024/01/15 03:54:20;;;;;;;29.85;10.48;;;-1.10;99.90;;;;;;5052957;28;20513;-80
2024/01/15 03:56:46;;;;;;;29.15;11.35;;;-1.00;99.90;;;;;;5050951;28;20056;-83
2024/01/15 03:59:12;;;;;;;29.20;10.43;;;-1.00;99.90;;;;;;5035844;28;20111;-80
2024/01/15 04:01:37;;;;;;;28.35;11.73;;;-1.00;99.90;;;;;;5033825;28;20037;-82
2024/01/15 04:04:03;;;;;;;29.42;11.65;;;;;;;;;;5048583;28;20044;-82
2024/01/15 04:06:29;;;;;;;29.67;11.98;;;-1.00;99.90;;;;;;5053835;28;20033;-82
2024/01/15 04:08:55;;;;;;;33.58;11.27;;;-1.00;99.90;;;;;;5034524;28;20040;-84
2024/01/15 04:11:20;;;;;;;30.27;11.00;;;-1.00;99.90;;;;;;5051419;28;20048;-84
2024/01/15 04:13:46;;;;;;;35.05;12.55;;;;;;;;;;5052247;28;20033;-84
2024/01/15 04:16:12;;;;;;;34.63;12.95;;;-0.90;99.90;;;;;;5051967;28;20028;-82
2024/01/15 04:18:37;;;;;;;31.98;11.43;;;-0.90;99.90;;;;;;5021803;28;20099;-81
2024/01/15 04:21:05;;;;;;;32.42;11.93;;;-0.80;99.90;;;;;;5051232;28;20036;-81
2024/01/15 04:23:31;;;;;;;31.30;12.00;;;;;;;;;;5053457;28;20025;-82
2024/01/15 04:25:57;;;;;;;34.78;12.48;;;-0.80;99.90;;;;;;5035073;28;20070;-83
2024/01/15 04:28:22;;;;;;;33.00;12.15;;;-0.80;99.90;;;;;;5053643;28;20036;-82
2024/01/15 04:30:48;;;;;;;33.08;12.13;;;-0.70;99.90;;;;;;5033959;28;20040;-84
2024/01/15 04:33:14;;;;;;;30.05;11.82;;;-0.70;99.90;;;;;;5032162;28;20068;-82
2024/01/15 04:35:39;;;;;;;28.63;11.48;;;-0.80;99.90;;;;;;5035928;28;20509;-83
2024/01/15 04:38:05;;;;;;;34.13;12.50;;;-0.70;99.90;;;;;;5052522;28;20031;-84
2024/01/15 04:40:30;;;;;;;38.60;12.88;;;-0.70;99.90;;;;;;5036030;28;20028;-82
2024/01/15 04:42:56;;;;;;;38.55;12.43;;;-0.70;99.90;;;;;;5034048;28;20253;-83
2024/01/15 04:45:28;;;;;;;30.50;11.82;;;-0.70;99.90;;;;;;5052220;28;20025;-83
2024/01/15 04:47:54;;;;;;;38.83;12.85;;;-0.70;99.90;;;;;;5050457;28;20025;-83
2024/01/15 04:50:20;;;;;;;31.55;11.93;;;-0.60;99.90;;;;;;5051105;28;20101;-82
2024/01/15 04:52:45;;;;;;;30.10;12.05;;;-0.50;99.90;;;;;;5052814;28;20064;-84
2024/01/15 04:55:11;;;;;;;33.63;13.52;;;;;;;;;;5052432;28;20398;-83
2024/01/15 04:57:37;;;;;;;31.13;11.95;;;-0.40;99.90;;;;;;5036859;28;20025;-83
2024/01/15 05:00:03;;;;;;;30.90;12.88;;;-0.50;99.90;;;;;;5033537;28;20037;-83
2024/01/15 05:02:28;;;;;;;32.55;11.98;;;-0.50;99.90;;;;;;5052620;28;20048;-82
2024/01/15 05:04:54;;;;;;;32.45;12.18;;;-0.60;99.90;;;;;;5018245;28;20082;-82
2024/01/15 05:07:20;;;;;;;27.33;11.50;;;-0.60;99.90;;;;;;5048642;28;20532;-83
2024/01/15 05:09:45;;;;;;;34.85;13.07;;;-0.60;99.90;;;;;;5051043;28;20025;-84
2024/01/15 05:12:11;;;;;;;30.98;12.68;;;;;;;;;;5036980;28;20084;-82
2024/01/15 05:14:37;;;;;;;30.65;12.40;;;-0.70;99.90;;;;;;5037906;28;20033;-83
2024/01/15 05:17:03;;;;;;;37.25;13.75;;;;;;;;;;5035001;28;20036;-82
2024/01/15 05:19:29;;;;;;;35.25;13.80;;;;;;;;;;5049178;28;20677;-82
2024/01/15 05:21:54;;;;;;;30.98;11.27;;;-0.70;99.90;;;;;;5053838;28;20040;-82
2024/01/15 05:24:20;;;;;;;35.50;12.50;;;;;;;;;;5049487;28;20032;-85
2024/01/15 05:26:46;;;;;;;35.60;13.30;;;;;;;;;;5052231;28;20013;-83
2024/01/15 05:29:12;;;;;;;35.80;11.95;;;-0.60;99.90;;;;;;5046788;28;20024;-82
2024/01/15 05:31:38;;;;;;;33.45;13.48;;;;;;;;;;5030827;28;20501;-81
2024/01/15 05:34:04;;;;;;;33.75;12.55;;;-0.70;99.90;;;;;;5034184;28;20029;-83
2024/01/15 05:36:29;;;;;;;37.20;12.73;;;-0.80;99.90;;;;;;5036843;28;20127;-83
2024/01/15 05:38:55;;;;;;;34.22;12.23;;;-0.70;99.90;;;;;;5051572;28;20502;-82
2024/01/15 05:41:21;;;;;;;37.70;13.32;;;;;;;;;;5053373;28;20193;-83
2024/01/15 05:43:47;;;;;;;36.63;13.93;;;-0.80;99.90;;;;;;5053833;28;20017;-83
2024/01/15 05:46:13;;;;;;;35.10;14.10;;;;;;;;;;5055061;28;20021;-82
2024/01/15 05:48:39;;;;;;;36.50;13.40;;;-0.80;99.90;;;;;;5054699;28;20139;-84
2024/01/15 05:51:05;;;;;;;39.05;13.93;;;;;;;;;;5050485;28;20055;-82
2024/01/15 05:53:30;;;;;;;35.28;14.65;;;-0.70;99.90;;;;;;5050915;28;20025;-82
2024/01/15 05:55:56;;;;;;;38.75;13.93;;;-0.90;99.90;;;;;;5051993;28;20033;-82
2024/01/15 05:58:22;;;;;;;35.85;14.13;;;;;;;;;;5034205;28;20040;-82
2024/01/15 06:00:49;;;;;;;35.53;13.98;;;;;;;;;;5048003;28;20124;-82
2024/01/15 06:03:15;;;;;;;37.08;13.25;;;;;;;;;;5027463;28;20045;-83
2024/01/15 06:05:42;;;;;;;33.13;12.30;;;;;;;;;;5048726;28;20026;-84
2024/01/15 06:08:09;;;;;;;31.00;11.68;;;;;;;;;;5035225;28;20025;-83
2024/01/15 06:10:35;;;;;;;36.58;13.65;;;;;;;;;;5051926;28;20182;-82
2024/01/15 06:13:01;;;;;;;40.15;15.40;;;;;;;;;;5046104;28;20041;-85
2024/01/15 06:15:27;;;;;;;35.75;12.77;;;;;;;;;;5053143;28;20043;-83
2024/01/15 06:17:53;;;;;;;33.63;13.60;;;;;;;;;;5054856;28;20029;-85
2024/01/15 06:20:19;;;;;;;31.05;13.93;;;;;;;;;;5037297;28;20091;-83
2024/01/15 06:22:45;;;;;;;34.25;14.07;;;;;;;;;;5034932;28;20033;-85
2024/01/15 06:25:11;;;;;;;36.40;13.45;;;-0.40;99.90;;;;;;5036437;28;20025;-86
2024/01/15 06:27:37;;;;;;;39.97;14.35;;;;;;;;;;5047588;28;20093;-83
2024/01/15 06:30:03;;;;;;;38.10;14.52;;;-0.30;99.90;;;;;;5053093;28;20025;-84
2024/01/15 06:32:30;;;;;;;38.15;13.90;;;;;;;;;;5035327;28;20033;-86
2024/01/15 06:34:56;;;;;;;34.67;13.05;;;;;;;;;;5055642;28;20021;-86
2024/01/15 06:37:22;;;;;;;36.53;13.88;;;;;;;;;;5037883;28;20040;-82
2024/01/15 06:39:51;;;;;;;36.55;13.27;;;;;;;;;;5070839;28;20082;-84
2024/01/15 06:42:17;;;;;;;32.85;13.45;;;;;;;;;;5053791;28;20032;-86
2024/01/15 06:44:43;;;;;;;35.88;13.27;;;;;;;;;;5069698;28;20036;-82
2024/01/15 06:47:09;;;;;;;39.38;13.95;;;;;;;;;;5063767;28;20029;-84
2024/01/15 06:49:35;;;;;;;37.15;13.93;;;;;;;;;;5055091;28;20029;-85
2024/01/15 06:52:01;;;;;;;38.08;14.10;;;;;;;;;;5043645;28;20029;-81
2024/01/15 06:54:27;;;;;;;32.45;13.77;;;;;;;;;;5053043;28;20055;-85
2024/01/15 06:56:55;;;;;;;37.78;13.48;;;;;;;;;;5056766;28;20025;-85
2024/01/15 06:59:21;;;;;;;34.80;13.40;;;;;;;;;;5036585;28;20036;-85
2024/01/15 07:01:47;;;;;;;36.50;13.60;;;;;;;;;;5055592;28;20032;-84
2024/01/15 07:04:13;;;;;;;43.47;14.75;;;;;;;;;;5050740;28;20057;-83
2024/01/15 07:06:39;;;;;;;40.88;13.70;;;;;;;;;;5037704;28;20025;-84
2024/01/15 07:09:06;;;;;;;33.33;14.00;;;;;;;;;;5056307;28;20033;-83
2024/01/15 07:11:32;;;;;;;34.08;13.82;;;;;;;;;;5037997;28;20036;-84
2024/01/15 07:13:58;;;;;;;40.88;13.88;;;;;;;;;;5038322;28;20260;-84
2024/01/15 07:16:24;;;;;;;36.78;13.82;;;;;;;;;;5053704;28;20028;-83
2024/01/15 07:18:50;;;;;;;32.95;12.57;;;;;;;;;;5038449;28;20056;-82
2024/01/15 07:21:16;;;;;;;31.58;12.63;;;;;;;;;;5031227;28;20024;-85
2024/01/15 07:23:42;;;;;;;35.35;13.00;;;;;;;;;;5042742;28;20037;-84
2024/01/15 07:26:09;;;;;;;37.33;14.02;;;;;;;;;;5026669;28;20486;-84
2024/01/15 07:28:35;;;;;;;34.75;13.77;;;;;;;;;;5052038;28;20036;-85
2024/01/15 07:31:01;;;;;;;36.88;13.38;;;;;;;;;;5058167;28;20060;-83
2024/01/15 07:33:27;;;;;;;38.75;14.30;;;;;;;;;;5055875;28;20055;-85
2024/01/15 07:35:53;;;;;;;40.33;13.57;;;;;;;;;;5056721;28;20120;-85
2024/01/15 07:38:19;;;;;;;35.70;13.27;;;;;;;;;;5036117;28;20037;-83
2024/01/15 07:40:49;;;;;;;38.60;14.68;;;;;;;;;;5056650;28;20041;-88
2024/01/15 07:43:15;;;;;;;35.15;14.27;;;;;;;;;;5037220;28;20029;-88
2024/01/15 07:45:41;;;;;;;43.50;13.50;;;;;;;;;;5040354;28;20029;-87
2024/01/15 07:48:07;;;;;;;33.60;13.85;;;;;;;;;;5053821;28;20151;-83
2024/01/15 07:50:33;;;;;;;36.53;14.68;;;;;;;;;;5054788;28;20033;-85
2024/01/15 07:52:59;;;;;;;40.30;14.55;;;;;;;;;;5059924;28;20136;-89
2024/01/15 07:55:25;;;;;;;44.05;15.45;;;;;;;;;;5039451;28;20103;-88
2024/01/15 07:57:53;;;;;;;37.60;13.88;;;;;;;;;;5040844;28;20094;-84
2024/01/15 08:00:19;;;;;;;39.42;14.02;;;;;;;;;;5056848;28;20036;-86
2024/01/15 08:02:45;;;;;;;39.13;13.95;;;;;;;;;;5027396;28;20110;-85
2024/01/15 08:05:11;;;;;;;39.20;14.23;;;;;;;;;;5059966;28;20136;-84
2024/01/15 08:07:37;;;;;;;39.47;15.27;;;;;;;;;;5043022;28;20029;-84
2024/01/15 08:10:03;;;;;;;41.35;14.65;;;;;;;;;;5037040;28;20037;-85
2024/01/15 08:12:29;;;;;;;39.83;15.32;;;;;;;;;;5041144;28;20134;-86
2024/01/15 08:14:55;;;;;;;41.17;13.88;;;;;;;;;;5056612;28;20549;-84
2024/01/15 08:17:21;;;;;;;40.20;14.02;;;-0.10;99.90;;;;;;5041362;28;20060;-85
2024/01/15 08:19:47;;;;;;;39.30;14.40;;;;;;;;;;5051589;28;20036;-85
2024/01/15 08:22:13;;;;;;;37.75;13.55;;;;;;;;;;5057956;28;20075;-82
2024/01/15 08:24:39;;;;;;;37.47;13.98;;;;;;;;;;5056056;28;20029;-87
2024/01/15 08:27:05;;;;;;;42.17;14.50;;;;;;;;;;5060540;28;20119;-83
2024/01/15 08:29:33;;;;;;;44.25;13.75;;;;;;;;;;5045717;28;20033;-85
2024/01/15 08:31:59;;;;;;;40.80;15.18;;;;;;;;;;5065175;28;20033;-85
2024/01/15 08:34:25;;;;;;;37.65;13.18;;;;;;;;;;5055733;28;20041;-84
2024/01/15 08:36:54;;;;;;;32.78;13.40;;;;;;;;;;5047180;28;20059;-86
2024/01/15 08:39:21;;;;;;;42.47;13.80;;;;;;;;;;5045277;28;20049;-83
2024/01/15 08:41:47;;;;;;;38.38;13.32;;;;;;;;;;5059873;28;20025;-83
2024/01/15 08:44:13;;;;;;;37.15;13.95;;;;;;;;;;5043459;28;20025;-82
2024/01/15 08:46:39;;;;;;;41.00;15.45;;;;;;;;;;5041255;28;20545;-83
2024/01/15 08:49:05;;;;;;;42.10;15.85;;;;;;;;;;5045166;28;20059;-82
2024/01/15 08:51:32;;;;;;;40.47;14.85;;;;;;;;;;5060536;28;20029;-86
2024/01/15 08:53:58;;;;;;;42.35;14.95;;;;;;;;;;5053157;28;20037;-90
2024/01/15 08:56:24;;;;;;;42.55;14.43;;;;;;;;;;5040933;28;20024;-85
2024/01/15 08:58:50;;;;;;;46.28;15.75;;;;;;;;;;5047886;28;20036;-87
2024/01/15 09:01:16;;;;;;;47.15;16.25;;;;;;;;;;5057239;28;20036;-89
2024/01/15 09:03:42;;;;;;;42.95;14.95;;;;;;;;;;5058968;28;20029;-87
2024/01/15 09:06:09;;;;;;;44.10;15.65;;;;;;;;;;5049550;28;20036;-83
2024/01/15 09:08:36;;;;;;;45.20;15.43;;;;;;;;;;5048503;28;20028;-85
2024/01/15 09:11:03;;;;;;;42.35;15.02;;;;;;;;;;5050659;28;20033;-84
2024/01/15 09:13:29;;;;;;;47.75;16.17;;;;;;;;;;5061767;28;20033;-84
2024/01/15 09:15:55;;;;;;;43.53;16.00;;;;;;;;;;5065324;28;20044;-87
2024/01/15 09:18:21;;;;;;;40.25;16.60;;;;;;;;;;5043426;28;20119;-85
2024/01/15 09:20:47;;;;;;;43.33;16.17;;;;;;;;;;5049489;28;20025;-87
2024/01/15 09:23:13;;;;;;;51.08;19.15;;;;;;;;;;5058907;28;20078;-82
2024/01/15 09:25:39;;;;;;;42.72;16.05;;;;;;;;;;5042432;28;20542;-83
2024/01/15 09:28:05;;;;;;;42.28;14.52;;;;;;;;;;5060826;28;20071;-84
2024/01/15 09:30:31;;;;;;;42.70;15.05;;;;;;;;;;5061917;28;20012;-83
2024/01/15 09:32:58;;;;;;;40.17;15.15;;;;;;;;;;5058810;28;20052;-83
2024/01/15 09:35:24;;;;;;;40.95;16.08;;;;;;;;;;5041807;28;20017;-86
2024/01/15 09:37:50;;;;;;;43.05;14.35;;;;;;;;;;5047203;28;20039;-84
2024/01/15 09:40:16;;;;;;;41.72;16.00;;;;;;;;;;5046811;28;20559;-84
2024/01/15 09:42:42;;;;;;;44.55;15.80;;;0.60;99.90;;;;;;5062076;28;20215;-84
2024/01/15 09:45:09;;;;;;;42.70;15.43;;;;;;;;;;5061494;28;20021;-89
2024/01/15 09:47:35;;;;;;;37.85;14.43;;;;;;;;;;5047382;28;20044;-84
2024/01/15 09:50:03;;;;;;;38.97;14.32;;;;;;;;;;5066780;28;20033;-88
2024/01/15 09:52:30;;;;;;;36.08;13.32;;;0.50;99.90;;;;;;5050152;28;20040;-85
2024/01/15 09:54:57;;;;;;;34.13;13.68;;;;;;;;;;5063388;28;20025;-87
2024/01/15 09:57:23;;;;;;;38.10;13.73;;;;;;;;;;5045642;28;20040;-86
2024/01/15 09:59:49;;;;;;;32.40;11.45;;;;;;;;;;5063403;28;20024;-88
2024/01/15 10:02:18;;;;;;;32.45;12.10;;;;;;;;;;5063194;28;20026;-87
2024/01/15 10:04:44;;;;;;;32.63;11.68;;;;;;;;;;5038838;28;20048;-88
2024/01/15 10:07:12;;;;;;;29.60;10.98;;;;;;;;;;5062489;28;20489;-83
2024/01/15 10:09:38;;;;;;;26.20;10.50;;;;;;;;;;5060403;28;20097;-85
2024/01/15 10:12:04;;;;;;;29.92;11.13;;;;;;;;;;5066652;28;20036;-86
2024/01/15 10:14:30;;;;;;;24.52;10.02;;;;;;;;;;5055104;28;20021;-90
2024/01/15 10:16:56;;;;;;;28.42;10.82;;;;;;;;;;5054902;28;20048;-86
2024/01/15 10:19:23;;;;;;;26.83;10.07;;;;;;;;;;5067747;28;20115;-86
2024/01/15 10:21:49;;;;;;;26.02;10.13;;;;;;;;;;5069327;28;20039;-86
2024/01/15 10:24:15;;;;;;;25.35;9.77;;;;;;;;;;5041182;28;20092;-86
2024/01/15 10:26:41;;;;;;;24.90;9.05;;;;;;;;;;5031616;28;20025;-83
2024/01/15 10:29:07;;;;;;;23.50;9.82;;;;;;;;;;5042152;28;20025;-85
2024/01/15 10:31:33;;;;;;;22.15;8.82;;;;;;;;;;5057199;28;20079;-84
2024/01/15 10:34:11;;;;;;;19.65;7.90;;;;;;;;;;5059581;28;20017;-85
2024/01/15 10:36:40;;;;;;;19.42;8.02;;;1.40;99.90;;;;;;5043303;28;20056;-82
2024/01/15 10:39:07;;;;;;;20.13;8.63;;;;;;;;;;5044385;28;20040;-79
2024/01/15 10:41:33;;;;;;;18.35;8.32;;;;;;;;;;5039954;28;20017;-82
2024/01/15 10:43:59;;;;;;;18.52;8.15;;;;;;;;;;5060424;28;20317;-82
2024/01/15 10:46:26;;;;;;;19.73;8.10;;;;;;;;;;5060256;28;20063;-85
2024/01/15 10:48:52;;;;;;;16.45;7.97;;;;;;;;;;5055101;28;20055;-84
2024/01/15 10:51:19;;;;;;;19.05;7.95;;;;;;;;;;5037350;28;20028;-84
2024/01/15 10:53:46;;;;;;;18.38;7.40;;;1.60;99.90;;;;;;5036207;28;20030;-82
2024/01/15 10:56:12;;;;;;;17.63;6.95;;;;;;;;;;5052364;28;20032;-82
2024/01/15 10:58:40;;;;;;;21.05;8.70;;;1.70;99.90;;;;;;5033262;28;20037;-80
2024/01/15 11:01:06;;;;;;;21.40;7.47;;;;;;;;;;5050078;28;20036;-79
2024/01/15 11:03:32;;;;;;;17.67;8.23;;;;;;;;;;5052916;28;20985;-83
2024/01/15 11:05:59;;;;;;;19.05;7.00;;;1.70;99.90;;;;;;5034792;28;20033;-80
2024/01/15 11:08:25;;;;;;;20.52;7.82;;;;;;;;;;5036063;28;20033;-83
2024/01/15 11:10:52;;;;;;;21.33;7.57;;;;;;;;;;5055374;28;20029;-84
2024/01/15 11:13:21;;;;;;;25.08;11.48;;;;;;;;;;5036702;28;20029;-82
2024/01/15 11:15:59;;;;;;;14.25;6.88;;;;;;;;;;5035348;28;20032;-80
2024/01/15 11:18:28;;;;;;;20.48;8.30;;;1.80;99.90;;;;;;5037332;28;20082;-84
2024/01/15 11:21:16;;;;;;;19.60;8.65;;;1.80;99.90;;;;;;5053911;28;20060;-79
2024/01/15 11:23:56;;;;;;;19.92;8.50;;;1.80;99.90;;;;;;5050294;28;20025;-83
2024/01/15 11:26:36;;;;;;;19.20;8.18;;;1.80;99.90;;;;;;5049382;28;20319;-79
2024/01/15 11:29:03;;;;;;;19.00;6.95;;;1.80;99.90;;;;;;5052470;28;20108;-86
2024/01/15 11:31:38;;;;;;;17.58;8.10;;;1.90;99.90;;;;;;5049550;28;20029;-81
2024/01/15 11:34:05;;;;;;;17.95;7.93;;;;;;;;;;5048672;28;20021;-82
2024/01/15 11:36:51;;;;;;;18.02;8.23;;;1.80;99.90;;;;;;5051048;28;20526;-80
2024/01/15 11:39:32;;;;;;;17.67;8.45;;;;;;;;;;5039219;28;20376;-81
2024/01/15 11:41:58;;;;;;;;;;;1.80;99.90;;;;;;5052326;28;20161;-85
2024/01/15 11:44:25;;;;;;;18.83;7.85;;;;;;;;;;5034149;28;19909;-82
2024/01/15 11:47:02;;;;;;;18.92;7.85;;;;;;;;;;5054180;28;20115;-82
2024/01/15 11:49:38;;;;;;;17.10;8.02;;;;;;;;;;5056433;28;20109;-85
2024/01/15 11:52:05;;;;;;;18.95;8.20;;;1.90;99.90;;;;;;5056383;28;20037;-84
2024/01/15 11:54:33;;;;;;;19.00;8.60;;;;;;;;;;5052782;28;20115;-85
2024/01/15 11:57:01;;;;;;;18.48;7.93;;;;;;;;;;5037215;28;20064;-85
2024/01/15 11:59:27;;;;;;;18.85;8.82;;;;;;;;;;5036612;28;20036;-84
2024/01/15 12:01:53;;;;;;;19.33;8.85;;;;;;;;;;5058857;28;20021;-83
2024/01/15 12:04:21;;;;;;;20.05;8.90;;;1.90;99.90;;;;;;5040499;28;20029;-83
2024/01/15 12:06:47;;;;;;;20.95;7.95;;;;;;;;;;5055920;28;20243;-82
2024/01/15 12:09:13;;;;;;;20.38;9.32;;;;;;;;;;5057867;28;20033;-90
2024/01/15 12:11:46;;;;;;;15.45;8.02;;;2.00;99.90;;;;;;5057516;28;20048;-81
2024/01/15 12:14:13;;;;;;;19.25;8.48;;;1.90;99.90;;;;;;5038740;28;20064;-86
2024/01/15 12:16:39;;;;;;;17.77;8.63;;;;;;;;;;5061458;28;20056;-83
2024/01/15 12:19:05;;;;;;;20.48;9.20;;;;;;;;;;5062152;28;20044;-82
2024/01/15 12:21:31;;;;;;;18.02;8.70;;;;;;;;;;5035572;28;20021;-86
2024/01/15 12:23:57;;;;;;;19.35;8.38;;;;;;;;;;5067442;28;20025;-82
2024/01/15 12:26:23;;;;;;;25.20;9.25;;;;;;;;;;5047743;28;21586;-84
2024/01/15 12:28:51;;;;;;;19.70;8.80;;;1.90;99.90;;;;;;5045221;28;20029;-83
2024/01/15 12:31:17;;;;;;;16.13;8.05;;;;;;;;;;5041657;28;20098;-87
2024/01/15 12:33:43;;;;;;;19.10;8.65;;;;;;;;;;5062013;28;20445;-83
2024/01/15 12:36:09;;;;;;;15.43;7.82;;;;;;;;;;5043592;28;20091;-86
2024/01/15 12:38:35;;;;;;;16.83;7.90;;;;;;;;;;5043143;28;20033;-85
2024/01/15 12:41:01;;;;;;;19.25;8.23;;;;;;;;;;5042181;28;20166;-88
2024/01/15 12:43:28;;;;;;;17.80;8.30;;;;;;;;;;5060292;28;20115;-83
2024/01/15 12:45:57;;;;;;;20.40;9.20;;;;;;;;;;5044185;28;20095;-82
2024/01/15 12:48:23;;;;;;;20.02;8.82;;;;;;;;;;5057152;28;20068;-82
2024/01/15 12:50:48;;;;;;;15.65;7.63;;;2.10;99.90;;;;;;5063262;28;20033;-84
2024/01/15 12:53:15;;;;;;;16.98;8.70;;;;;;;;;;5036596;28;20056;-83
2024/01/15 12:55:41;;;;;;;15.55;7.80;;;;;;;;;;5062220;28;20037;-85
2024/01/15 12:58:07;;;;;;;19.98;8.82;;;;;;;;;;5061671;28;20096;-84
2024/01/15 13:00:33;;;;;;;15.88;7.55;;;;;;;;;;5044429;28;20036;-82
2024/01/15 13:03:00;;;;;;;16.90;8.43;;;;;;;;;;5062050;28;20025;-83
2024/01/15 13:05:27;;;;;;;15.45;7.40;;;;;;;;;;5063776;28;20024;-83
2024/01/15 13:07:53;;;;;;;16.50;8.07;;;;;;;;;;5062686;28;20025;-84
2024/01/15 13:10:19;;;;;;;14.30;7.57;;;;;;;;;;5062909;28;20052;-83
2024/01/15 13:12:45;;;;;;;17.35;8.23;;;;;;;;;;5063692;28;20020;-84
2024/01/15 13:15:11;;;;;;;17.65;8.45;;;;;;;;;;5062786;28;20037;-87
2024/01/15 13:17:41;;;;;;;15.57;7.95;;;2.30;99.90;;;;;;5048576;28;20039;-82
2024/01/15 13:20:08;;;;;;;16.20;7.90;;;;;;;;;;5059695;28;20045;-82
2024/01/15 13:22:34;;;;;;;16.65;8.18;;;;;;;;;;5043427;28;20041;-82
2024/01/15 13:25:01;;;;;;;16.80;8.30;;;;;;;;;;5061723;28;20033;-85
2024/01/15 13:27:27;;;;;;;16.23;8.75;;;;;;;;;;5023252;28;20021;-84
2024/01/15 13:29:53;;;;;;;16.35;7.88;;;;;;;;;;5062630;28;20059;-89
2024/01/15 13:32:26;;;;;;;17.23;7.93;;;2.20;99.90;;;;;;5059717;28;20037;-84
2024/01/15 13:34:52;;;;;;;20.75;8.50;;;;;;;;;;5043822;28;20029;-82